Time;durP1;ratioP1;P1;durP2;ratioP2;P2;SDS_P1;SDS_P2;PMS_P1;PMS_P2;Temp;Humidity;BMP_temperature;BMP_pressure;BME280_temperature;BME280_humidity;BME280_pressure;Samples;Min_cycle;Max_cycle;Signal;HPM_P1;HPM_P2
2024/01/01 00:00:37;;;;;;;17.90;10.20;;;;;;;-0.73;100.00;100578.23;109132;1254;74739;-52
2024/01/01 00:03:05;;;;;;;18.30;9.50;;;;;;;-0.74;100.00;100581.52;109113;1254;66968;-53
2024/01/01 00:05:32;;;;;;;17.40;9.50;;;;;;;-0.75;100.00;100585.48;109185;1254;72536;-53
2024/01/01 00:08:00;;;;;;;19.30;10.30;;;;;;;-0.75;100.00;100585.66;109108;1254;59662;-52
2024/01/01 00:10:28;;;;;;;18.00;9.50;;;;;;;-0.74;100.00;100585.61;109226;1254;59169;-52
2024/01/01 00:12:55;;;;;;;18.50;10.90;;;;;;;-0.73;100.00;100589.33;109111;1254;74780;-52
2024/01/01 00:15:23;;;;;;;17.40;9.90;;;;;;;-0.72;100.00;100589.11;109285;1257;66953;-55
2024/01/01 00:17:51;;;;;;;18.00;9.00;;;;;;;-0.70;100.00;100589.49;109219;1254;70442;-52
2024/01/01 00:20:18;;;;;;;17.20;9.80;;;;;;;-0.69;100.00;100588.57;109182;1254;59642;-52
2024/01/01 00:22:48;;;;;;;17.20;9.80;;;;;;;-0.70;100.00;100588.45;109190;1254;59134;-53
2024/01/01 00:25:16;;;;;;;18.10;9.50;;;;;;;-0.70;100.00;100585.86;109148;1257;73697;-55
2024/01/01 00:27:44;;;;;;;16.40;9.40;;;;;;;-0.70;100.00;100592.68;109306;1255;67257;-53
2024/01/01 00:30:11;;;;;;;19.10;9.00;;;;;;;-0.69;100.00;100593.66;109226;1254;72749;-53
2024/01/01 00:32:39;;;;;;;19.00;10.30;;;;;;;-0.70;100.00;100598.04;109128;1255;59332;-52
2024/01/01 00:35:07;;;;;;;17.60;10.20;;;;;;;-0.73;100.00;100600.59;109127;1254;59353;-53
2024/01/01 00:37:36;;;;;;;19.90;10.80;;;;;;;-0.75;100.00;100597.64;109090;1260;75297;-53
2024/01/01 00:40:04;;;;;;;19.20;11.00;;;;;;;-0.76;100.00;100597.36;109215;1254;65845;-53
2024/01/01 00:42:33;;;;;;;18.70;10.70;;;;;;;-0.78;100.00;100604.45;109218;1254;70587;-54
2024/01/01 00:45:02;;;;;;;17.40;9.70;;;;;;;-0.78;100.00;100607.39;109101;1254;59440;-56
2024/01/01 00:47:29;;;;;;;19.20;10.40;;;;;;;-0.79;100.00;100610.17;109193;1254;59049;-54
2024/01/01 00:49:58;;;;;;;22.80;10.40;;;;;;;-0.79;100.00;100606.27;109119;1254;72461;-54
2024/01/01 00:52:26;;;;;;;18.10;10.40;;;;;;;-0.81;100.00;100610.33;109159;1254;64709;-54
2024/01/01 00:54:53;;;;;;;18.30;10.30;;;;;;;-0.84;100.00;100609.32;109186;1256;72655;-53
2024/01/01 00:57:21;;;;;;;18.80;9.60;;;;;;;-0.86;100.00;100609.95;109173;1254;59210;-56
2024/01/01 00:59:48;;;;;;;20.80;10.20;;;;;;;-0.87;100.00;100611.89;109208;1254;60057;-54
2024/01/01 01:02:16;;;;;;;19.10;10.60;;;;;;;-0.87;100.00;100607.82;109294;1254;74733;-53
2024/01/01 01:04:46;;;;;;;19.00;9.90;;;;;;;-0.87;100.00;100605.25;109158;1259;65623;-54
2024/01/01 01:07:32;;;;;;;19.80;9.90;;;;;;;-0.90;100.00;100604.95;109135;1254;72893;-54
2024/01/01 01:09:59;;;;;;;18.30;10.30;;;;;;;-0.94;100.00;100598.40;109131;1256;59324;-54
2024/01/01 01:12:27;;;;;;;20.70;10.40;;;;;;;-1.01;100.00;100598.67;109046;1254;60095;-53
2024/01/01 01:14:54;;;;;;;18.70;9.70;;;;;;;-1.06;100.00;100601.35;109133;1254;73416;-53
2024/01/01 01:17:22;;;;;;;21.90;10.80;;;;;;;-1.09;100.00;100597.99;109238;1254;66950;-56
2024/01/01 01:19:50;;;;;;;20.90;11.60;;;;;;;-1.13;100.00;100595.38;109108;1256;73208;-53
2024/01/01 01:22:18;;;;;;;20.60;10.80;;;;;;;-1.16;100.00;100594.39;109212;1256;60979;-54
2024/01/01 01:24:45;;;;;;;22.40;10.30;;;;;;;-1.18;100.00;100590.77;109312;1254;58950;-53
2024/01/01 01:27:13;;;;;;;20.80;10.90;;;;;;;-1.21;100.00;100592.80;109240;1254;74723;-53
2024/01/01 01:29:40;;;;;;;18.60;10.60;;;;;;;-1.21;100.00;100595.88;109132;1254;67317;-54
2024/01/01 01:32:09;;;;;;;18.60;10.90;;;;;;;-1.22;100.00;100601.73;109161;1255;72012;-53
2024/01/01 01:34:36;;;;;;;19.60;10.80;;;;;;;-1.22;100.00;100601.58;109110;1254;59686;-53
2024/01/01 01:37:04;;;;;;;19.70;10.20;;;;;;;-1.25;100.00;100600.39;109127;1254;60124;-53
2024/01/01 01:39:32;;;;;;;18.00;9.70;;;;;;;-1.26;100.00;100602.46;109001;1254;74722;-56
2024/01/01 01:42:00;;;;;;;21.10;11.10;;;;;;;-1.29;100.00;100606.93;109111;1259;66986;-53
2024/01/01 01:44:28;;;;;;;19.50;10.00;;;;;;;-1.32;100.00;100603.59;109176;1254;72676;-54
2024/01/01 01:46:56;;;;;;;20.70;11.20;;;;;;;-1.35;100.00;100604.97;109102;1254;60915;-53
2024/01/01 01:49:24;;;;;;;21.90;10.50;;;;;;;-1.39;100.00;100609.84;109115;1254;59507;-53
2024/01/01 01:51:51;;;;;;;20.10;11.30;;;;;;;-1.44;100.00;100607.73;109102;1254;75763;-54
2024/01/01 01:54:20;;;;;;;17.80;9.80;;;;;;;-1.47;100.00;100605.55;109065;1254;66805;-54
2024/01/01 01:56:48;;;;;;;20.40;9.90;;;;;;;-1.50;100.00;100601.12;109098;1254;72729;-53
2024/01/01 01:59:16;;;;;;;17.60;10.20;;;;;;;-1.51;100.00;100602.22;109007;1254;59387;-53
2024/01/01 02:01:43;;;;;;;23.60;12.00;;;;;;;-1.53;100.00;100602.30;109018;1259;59109;-56
2024/01/01 02:04:11;;;;;;;19.90;11.50;;;;;;;-1.53;100.00;100599.77;109036;1254;74801;-53
2024/01/01 02:06:38;;;;;;;17.60;10.20;;;;;;;-1.53;100.00;100604.73;109289;1254;65257;-53
2024/01/01 02:09:06;;;;;;;22.20;11.20;;;;;;;-1.52;100.00;100606.69;109123;1255;71397;-53
2024/01/01 02:11:33;;;;;;;17.20;10.40;;;;;;;-1.50;100.00;100604.52;109276;1254;59370;-54
2024/01/01 02:14:12;;;;;;;16.50;9.90;;;;;;;-1.48;100.00;100610.23;109070;1259;60255;-53
2024/01/01 02:16:40;;;;;;;20.80;9.40;;;;;;;-1.46;100.00;100610.11;109145;1254;72645;-53
2024/01/01 02:19:24;;;;;;;21.10;11.20;;;;;;;-1.45;100.00;100612.91;109112;1260;67017;-54
2024/01/01 02:21:52;;;;;;;20.00;11.60;;;;;;;-1.47;100.00;100614.73;109278;1255;72732;-53
2024/01/01 02:24:20;;;;;;;20.60;10.50;;;;;;;-1.48;100.00;100616.00;109193;1254;59010;-53
2024/01/01 02:26:48;;;;;;;20.70;10.70;;;;;;;-1.49;100.00;100623.25;109091;1254;60268;-53
2024/01/01 02:29:16;;;;;;;21.50;10.80;;;;;;;-1.53;100.00;100629.09;109196;1254;73449;-53
2024/01/01 02:31:44;;;;;;;21.90;11.40;;;;;;;-1.57;100.00;100628.19;109194;1254;65955;-53
2024/01/01 02:34:12;;;;;;;23.80;12.90;;;;;;;-1.61;100.00;100625.55;108999;1254;72764;-53
2024/01/01 02:36:40;;;;;;;26.00;12.80;;;;;;;-1.66;100.00;100629.40;109079;1254;60953;-53
2024/01/01 02:39:09;;;;;;;23.70;11.50;;;;;;;-1.71;100.00;100632.77;109018;1254;59051;-53
2024/01/01 02:41:38;;;;;;;21.50;10.20;;;;;;;-1.75;100.00;100635.06;109013;1259;74773;-53
2024/01/01 02:44:06;;;;;;;22.90;11.80;;;;;;;-1.79;100.00;100631.75;109211;1254;67569;-53
2024/01/01 02:46:33;;;;;;;17.10;9.00;;;;;;;-1.83;100.00;100627.92;109232;1254;73224;-53
2024/01/01 02:49:01;;;;;;;18.50;9.30;;;;;;;-1.84;100.00;100625.76;109176;1254;60895;-53
2024/01/01 02:51:29;;;;;;;16.40;9.90;;;;;;;-1.83;100.00;100624.52;109171;1254;59474;-53
2024/01/01 02:53:57;;;;;;;20.20;10.40;;;;;;;-1.80;100.00;100627.37;109073;1254;75223;-53
2024/01/01 02:56:24;;;;;;;19.00;10.90;;;;;;;-1.73;100.00;100628.99;109033;1254;65055;-53
2024/01/01 02:58:52;;;;;;;17.80;9.30;;;;;;;-1.70;100.00;100628.80;109083;1254;72746;-53
2024/01/01 03:01:20;;;;;;;20.30;9.90;;;;;;;-1.68;100.00;100633.65;109061;1254;183332;-53
2024/01/01 03:03:49;;;;;;;19.70;9.90;;;;;;;-1.64;100.00;100637.33;109210;1254;59120;-53
2024/01/01 03:06:18;;;;;;;16.50;9.00;;;;;;;-1.56;100.00;100637.64;109107;1256;73505;-53
2024/01/01 03:08:46;;;;;;;19.10;11.20;;;;;;;-1.52;100.00;100637.90;109127;1254;67460;-56
2024/01/01 03:11:14;;;;;;;18.10;10.70;;;;;;;-1.53;100.00;100635.21;109007;1254;72784;-53
2024/01/01 03:13:42;;;;;;;19.10;10.50;;;;;;;-1.54;100.00;100633.60;109127;1254;59655;-53
2024/01/01 03:16:10;;;;;;;17.00;8.90;;;;;;;-1.56;100.00;100632.16;109209;1254;59457;-53
2024/01/01 03:18:37;;;;;;;17.50;9.60;;;;;;;-1.57;100.00;100633.08;109018;1254;74725;-53
2024/01/01 03:21:05;;;;;;;21.00;10.50;;;;;;;-1.57;100.00;100637.57;109187;1254;65809;-54
2024/01/01 03:23:33;;;;;;;19.50;10.40;;;;;;;-1.60;100.00;100638.79;109119;1254;72772;-52
2024/01/01 03:26:00;;;;;;;22.80;11.90;;;;;;;-1.63;100.00;100639.64;109125;1254;59949;-54
2024/01/01 03:28:28;;;;;;;18.00;10.00;;;;;;;-1.65;100.00;100643.66;109189;1254;60094;-53
2024/01/01 03:30:57;;;;;;;18.50;11.00;;;;;;;-1.68;100.00;100645.58;109234;1254;73727;-55
2024/01/01 03:33:24;;;;;;;19.70;10.20;;;;;;;-1.74;100.00;100650.66;108979;1257;65626;-53
2024/01/01 03:35:52;;;;;;;15.90;8.80;;;;;;;-1.77;100.00;100647.13;109205;1254;71832;-53
2024/01/01 03:38:20;;;;;;;22.50;10.90;;;;;;;-1.80;100.00;100644.39;109122;1254;60943;-53
2024/01/01 03:40:48;;;;;;;19.10;11.10;;;;;;;-1.80;100.00;100647.15;109143;1254;59205;-52
2024/01/01 03:43:16;;;;;;;21.90;11.20;;;;;;;-1.81;100.00;100645.29;109165;1254;75020;-55
2024/01/01 03:45:43;;;;;;;19.50;10.20;;;;;;;-1.79;100.00;100641.14;109150;1259;66775;-54
2024/01/01 03:48:12;;;;;;;16.90;9.60;;;;;;;-1.79;100.00;100639.41;109249;1254;72680;-53
2024/01/01 03:50:40;;;;;;;18.20;9.90;;;;;;;-1.80;100.00;100641.02;109183;1254;59036;-53
2024/01/01 03:53:08;;;;;;;21.10;10.40;;;;;;;-1.80;100.00;100636.42;109188;1254;58875;-54
2024/01/01 03:55:36;;;;;;;21.00;11.40;;;;;;;-1.76;100.00;100636.15;109094;1254;75101;-53
2024/01/01 03:58:03;;;;;;;19.60;10.90;;;;;;;-1.77;100.00;100640.80;109145;1254;65722;-53
2024/01/01 04:00:31;;;;;;;19.20;10.40;;;;;;;-1.81;100.00;100644.10;109194;1254;71407;-53
2024/01/01 04:02:59;;;;;;;18.10;10.00;;;;;;;-1.88;100.00;100648.11;109129;1254;59371;-53
2024/01/01 04:05:27;;;;;;;20.00;10.00;;;;;;;-1.95;100.00;100647.87;109026;1254;58905;-53
2024/01/01 04:07:54;;;;;;;22.30;10.00;;;;;;;-2.00;100.00;100639.68;109283;1254;73724;-53
2024/01/01 04:10:22;;;;;;;23.00;12.70;;;;;;;-2.04;100.00;100641.98;109227;1254;66977;-53
2024/01/01 04:12:50;;;;;;;21.50;11.40;;;;;;;-2.08;100.00;100643.21;109195;1254;72674;-53
2024/01/01 04:15:17;;;;;;;20.50;11.00;;;;;;;-2.10;100.00;100651.53;109210;1254;61046;-53
2024/01/01 04:17:45;;;;;;;19.30;10.40;;;;;;;-2.11;100.00;100658.23;109111;1254;60127;-56
2024/01/01 04:20:13;;;;;;;20.10;10.80;;;;;;;-2.13;100.00;100657.64;109127;1257;74684;-52
2024/01/01 04:22:40;;;;;;;17.40;9.60;;;;;;;-2.14;100.00;100666.41;109129;1254;66228;-53
2024/01/01 04:25:09;;;;;;;19.60;10.80;;;;;;;-2.16;100.00;100669.21;109230;1254;72732;-53
2024/01/01 04:27:36;;;;;;;21.10;11.90;;;;;;;-2.17;100.00;100665.41;109103;1254;59714;-53
2024/01/01 04:30:05;;;;;;;19.90;12.40;;;;;;;-2.19;100.00;100667.05;109193;1254;59162;-53
2024/01/01 04:32:32;;;;;;;24.40;10.90;;;;;;;-2.22;100.00;100663.27;109275;1254;74647;-53
2024/01/01 04:35:00;;;;;;;18.20;9.80;;;;;;;-2.24;100.00;100656.55;109302;1254;66779;-53
2024/01/01 04:37:28;;;;;;;18.40;10.60;;;;;;;-2.24;100.00;100657.29;109146;1254;72914;-53
2024/01/01 04:39:55;;;;;;;21.30;10.00;;;;;;;-2.30;100.00;100657.30;109047;1254;59337;-53
2024/01/01 04:42:23;;;;;;;23.30;11.70;;;;;;;-2.32;100.00;100668.66;109197;1254;60082;-53
2024/01/01 04:44:52;;;;;;;22.60;11.20;;;;;;;-2.33;100.00;100675.04;109279;1254;73350;-53
2024/01/01 04:47:20;;;;;;;24.40;11.50;;;;;;;-2.33;100.00;100682.33;109146;1254;66956;-53
2024/01/01 04:49:48;;;;;;;17.80;10.40;;;;;;;-2.34;100.00;100683.40;109188;1254;71786;-53
2024/01/01 04:52:15;;;;;;;20.40;11.10;;;;;;;-2.39;100.00;100685.08;109182;1254;59682;-53
2024/01/01 04:54:43;;;;;;;20.50;10.70;;;;;;;-2.45;100.00;100687.46;109135;1254;60400;-53
2024/01/01 04:57:11;;;;;;;20.10;11.40;;;;;;;-2.49;100.00;100687.20;109211;1254;74674;-53
2024/01/01 04:59:38;;;;;;;21.80;12.40;;;;;;;-2.52;100.00;100691.95;109173;1254;66988;-53
2024/01/01 05:02:06;;;;;;;20.00;10.90;;;;;;;-2.52;100.00;100689.39;109128;1254;72723;-54
2024/01/01 05:04:34;;;;;;;21.60;11.80;;;;;;;-2.50;100.00;100692.34;109069;1254;61917;-53
2024/01/01 05:07:02;;;;;;;18.40;10.10;;;;;;;-2.46;100.00;100693.45;109130;1254;60024;-53
2024/01/01 05:09:30;;;;;;;17.10;9.50;;;;;;;-2.41;100.00;100693.70;109236;1254;73515;-52
2024/01/01 05:11:57;;;;;;;17.20;9.40;;;;;;;-2.38;100.00;100696.40;109194;1254;67346;-53
2024/01/01 05:14:25;;;;;;;23.10;12.00;;;;;;;-2.34;100.00;100698.21;109117;1254;72787;-56
2024/01/01 05:16:52;;;;;;;20.20;11.90;;;;;;;-2.30;100.00;100691.52;109099;1256;60918;-53
2024/01/01 05:19:20;;;;;;;23.60;12.90;;;;;;;-2.27;100.00;100689.98;109150;1254;58911;-53
2024/01/01 05:21:48;;;;;;;25.10;13.10;;;;;;;-2.21;100.00;100685.00;109155;1254;74839;-53
2024/01/01 05:24:15;;;;;;;19.80;11.10;;;;;;;-2.16;100.00;100680.46;109214;1254;66952;-54
2024/01/01 05:26:43;;;;;;;21.40;11.10;;;;;;;-2.10;100.00;100677.42;109270;1253;73244;-53
2024/01/01 05:29:11;;;;;;;21.80;12.50;;;;;;;-2.05;100.00;100673.84;109123;1254;59649;-53
2024/01/01 05:31:38;;;;;;;25.10;12.70;;;;;;;-1.97;100.00;100669.30;109305;1253;59020;-53
2024/01/01 05:34:06;;;;;;;21.70;11.90;;;;;;;-1.91;100.00;100670.48;109235;1254;73193;-56
2024/01/01 05:36:34;;;;;;;19.70;10.80;;;;;;;-1.84;100.00;100676.70;109107;1254;65676;-54
2024/01/01 05:39:01;;;;;;;20.60;12.00;;;;;;;-1.78;100.00;100679.37;109223;1254;72654;-54
2024/01/01 05:41:29;;;;;;;21.50;11.50;;;;;;;-1.69;100.00;100687.67;109190;1255;59327;-53
2024/01/01 05:43:57;;;;;;;28.40;15.30;;;;;;;-1.56;100.00;100691.16;109297;1254;60165;-54
2024/01/01 05:46:25;;;;;;;25.60;14.20;;;;;;;-1.41;100.00;100689.69;109115;1254;73537;-52
2024/01/01 05:48:53;;;;;;;23.90;12.70;;;;;;;-1.23;100.00;100693.73;109105;1254;66799;-54
2024/01/01 05:51:20;;;;;;;21.90;12.40;;;;;;;-1.05;100.00;100693.56;109140;1254;72711;-53
2024/01/01 05:53:48;;;;;;;23.10;12.90;;;;;;;-0.82;100.00;100700.14;109125;1254;59360;-53
2024/01/01 05:56:16;;;;;;;18.50;11.50;;;;;;;-0.55;100.00;100703.01;109109;1254;60096;-53
2024/01/01 05:58:43;;;;;;;19.10;10.90;;;;;;;-0.26;100.00;100705.18;109224;1254;74683;-53
2024/01/01 06:01:11;;;;;;;17.90;11.60;;;;;;;0.00;100.00;100707.00;109136;1254;65707;-53
2024/01/01 06:03:38;;;;;;;18.30;11.00;;;;;;;0.25;100.00;100709.23;109130;1254;72733;-54
2024/01/01 06:06:09;;;;;;;22.20;11.10;;;;;;;0.52;100.00;100706.47;109066;1254;59769;-56
2024/01/01 06:08:37;;;;;;;17.30;9.70;;;;;;;0.86;100.00;100710.45;109145;1254;59084;-53
2024/01/01 06:11:05;;;;;;;20.80;10.70;;;;;;;1.18;100.00;100708.97;109218;1254;74747;-53
2024/01/01 06:13:32;;;;;;;17.70;10.40;;;;;;;1.55;100.00;100712.76;109120;1254;66971;-53
2024/01/01 06:16:00;;;;;;;19.00;10.20;;;;;;;1.96;100.00;100712.77;109148;1256;71417;-54
2024/01/01 06:18:27;;;;;;;17.60;10.70;;;;;;;2.36;100.00;100710.91;109129;1254;59032;-54
2024/01/01 06:20:56;;;;;;;17.90;10.50;;;;;;;2.80;100.00;100706.80;109219;1254;60010;-54
2024/01/01 06:23:23;;;;;;;17.30;10.40;;;;;;;3.20;100.00;100706.14;109184;1254;73722;-54
2024/01/01 06:25:54;;;;;;;18.20;11.30;;;;;;;3.57;100.00;100709.83;109131;1254;65636;-58
2024/01/01 06:28:22;;;;;;;17.40;10.90;;;;;;;3.93;100.00;100712.90;109099;1255;71444;-54
2024/01/01 06:30:49;;;;;;;15.90;11.10;;;;;;;4.24;100.00;100709.70;109143;1254;60174;-54
2024/01/01 06:33:17;;;;;;;20.00;11.40;;;;;;;4.58;100.00;100707.13;109196;1254;58903;-55
2024/01/01 06:35:45;;;;;;;18.60;12.50;;;;;;;4.95;100.00;100706.09;109141;1254;76964;-55
2024/01/01 06:38:12;;;;;;;19.70;12.40;;;;;;;5.30;100.00;100705.78;109098;1254;66954;-58
2024/01/01 06:40:40;;;;;;;18.50;11.80;;;;;;;5.61;100.00;100712.27;109183;1254;72824;-56
2024/01/01 06:43:08;;;;;;;16.70;11.50;;;;;;;5.95;100.00;100714.88;109137;1254;60846;-56
2024/01/01 06:45:36;;;;;;;17.30;11.20;;;;;;;6.21;100.00;100706.93;109226;1254;59403;-56
2024/01/01 06:48:03;;;;;;;19.30;12.60;;;;;;;6.34;100.00;100709.51;109184;1254;73998;-56
2024/01/01 06:50:31;;;;;;;19.70;12.80;;;;;;;6.39;100.00;100705.60;109128;1254;67633;-56
2024/01/01 06:52:59;;;;;;;17.50;12.00;;;;;;;6.50;100.00;100706.12;109209;1254;72726;-56
2024/01/01 06:55:29;;;;;;;18.20;12.40;;;;;;;6.67;100.00;100700.89;109114;1254;60101;-56
2024/01/01 06:57:59;;;;;;;18.70;11.50;;;;;;;6.79;100.00;100690.70;109197;1254;60978;-56
2024/01/01 07:00:27;;;;;;;15.00;10.80;;;;;;;6.94;100.00;100684.08;109087;1254;73496;-59
2024/01/01 07:02:59;;;;;;;;;;;;;;;7.19;100.00;100679.55;109182;1254;67096;-56
2024/01/01 07:05:28;;;;;;;17.00;11.70;;;;;;;7.39;100.00;100672.73;109130;1254;71529;-56
2024/01/01 07:07:56;;;;;;;16.80;10.60;;;;;;;7.51;100.00;100672.67;109142;1254;61784;-56
2024/01/01 07:10:24;;;;;;;17.50;11.60;;;;;;;7.54;100.00;100668.13;109140;1254;60112;-56
2024/01/01 07:12:52;;;;;;;15.20;11.10;;;;;;;7.61;100.00;100660.20;109208;1254;75533;-56
2024/01/01 07:15:19;;;;;;;16.50;10.20;;;;;;;7.66;100.00;100644.31;109132;1254;65914;-57
2024/01/01 07:17:47;;;;;;;17.10;12.10;;;;;;;7.81;100.00;100642.98;109124;1254;71471;-56
2024/01/01 07:20:14;;;;;;;17.90;12.40;;;;;;;8.02;100.00;100636.79;109097;1254;59451;-58
2024/01/01 07:22:42;;;;;;;14.70;10.50;;;;;;;8.31;100.00;100634.77;109263;1254;59356;-56
2024/01/01 07:25:10;;;;;;;14.90;10.10;;;;;;;8.55;100.00;100628.92;109161;1254;74758;-56
2024/01/01 07:27:39;;;;;;;15.60;11.20;;;;;;;8.70;100.00;100622.23;109156;1254;65720;-56
2024/01/01 07:30:07;;;;;;;15.10;10.40;;;;;;;8.77;100.00;100616.23;109107;1254;71453;-56
2024/01/01 07:32:35;;;;;;;15.10;10.80;;;;;;;8.86;100.00;100615.82;109191;1254;60157;-56
2024/01/01 07:35:03;;;;;;;17.10;11.90;;;;;;;8.90;100.00;100613.29;109141;1254;60151;-56
2024/01/01 07:37:31;;;;;;;15.70;11.10;;;;;;;8.80;100.00;100609.71;109126;1254;74769;-56
2024/01/01 07:39:58;;;;;;;15.80;11.20;;;;;;;8.57;100.00;100606.75;109132;1254;67380;-56
2024/01/01 07:42:26;;;;;;;15.80;10.80;;;;;;;8.39;100.00;100606.89;109126;1255;72735;-58
2024/01/01 07:44:54;;;;;;;18.90;11.20;;;;;;;8.34;100.00;100608.96;109185;1254;60118;-56
2024/01/01 07:47:21;;;;;;;16.70;11.80;;;;;;;8.34;100.00;100610.38;109162;1254;60109;-56
2024/01/01 07:49:49;;;;;;;16.90;11.50;;;;;;;8.35;100.00;100610.25;109221;1254;73479;-56
2024/01/01 07:52:17;;;;;;;15.20;10.30;;;;;;;8.38;100.00;100612.23;109133;1254;67280;-56
2024/01/01 07:54:45;;;;;;;15.40;10.70;;;;;;;8.37;100.00;100610.45;109092;1254;72980;-54
2024/01/01 07:57:12;;;;;;;15.30;10.30;;;;;;;8.29;100.00;100613.08;109112;1254;60171;-55
2024/01/01 07:59:40;;;;;;;17.70;11.10;;;;;;;8.17;100.00;100614.86;109172;1254;59196;-55
2024/01/01 08:02:07;;;;;;;18.70;11.50;;;;;;;8.07;100.00;100611.19;109195;1254;73363;-55
2024/01/01 08:04:35;;;;;;;17.40;10.20;;;;;;;8.04;100.00;100608.95;109116;1254;65645;-56
2024/01/01 08:07:03;;;;;;;14.20;9.90;;;;;;;8.07;100.00;100604.77;109235;1254;71384;-55
2024/01/01 08:09:30;;;;;;;16.70;10.90;;;;;;;8.25;100.00;100597.80;109116;1254;60155;-55
2024/01/01 08:11:58;;;;;;;13.90;10.00;;;;;;;8.46;100.00;100599.44;109232;1254;59187;-54
2024/01/01 08:14:26;;;;;;;13.90;9.50;;;;;;;8.61;100.00;100592.65;109134;1254;73454;-55
2024/01/01 08:16:53;;;;;;;16.90;10.40;;;;;;;8.68;100.00;100586.55;109148;1254;65341;-54
2024/01/01 08:19:21;;;;;;;15.50;11.70;;;;;;;8.68;100.00;100590.84;109139;1254;72755;-54
2024/01/01 08:21:48;;;;;;;15.70;11.20;;;;;;;8.74;100.00;100580.89;109167;1254;60136;-55
2024/01/01 08:24:16;;;;;;;16.80;11.00;;;;;;;8.71;100.00;100578.42;109227;1254;59105;-55
2024/01/01 08:26:44;;;;;;;14.50;9.90;;;;;;;8.58;100.00;100572.38;109118;1254;74929;-57
2024/01/01 08:29:12;;;;;;;16.10;11.00;;;;;;;8.43;100.00;100575.61;109130;1254;66005;-55
2024/01/01 08:31:39;;;;;;;13.90;10.60;;;;;;;8.36;100.00;100575.65;109135;1254;72541;-54
2024/01/01 08:34:07;;;;;;;17.20;11.00;;;;;;;8.36;100.00;100576.23;109111;1254;59325;-55
2024/01/01 08:36:35;;;;;;;16.70;10.50;;;;;;;8.41;100.00;100578.77;109238;1254;60087;-56
2024/01/01 08:39:03;;;;;;;14.30;9.60;;;;;;;8.54;100.00;100575.40;109142;1254;74670;-55
2024/01/01 08:41:31;;;;;;;19.40;10.70;;;;;;;8.65;100.00;100575.23;109268;1254;65706;-54
2024/01/01 08:43:59;;;;;;;15.40;10.70;;;;;;;8.73;100.00;100580.94;109144;1254;71385;-54
2024/01/01 08:46:26;;;;;;;15.80;10.50;;;;;;;8.90;100.00;100578.92;109155;1254;59148;-54
2024/01/01 08:48:54;;;;;;;14.80;10.10;;;;;;;9.03;100.00;100580.77;109104;1254;60103;-55
2024/01/01 08:51:22;;;;;;;16.80;11.50;;;;;;;8.98;100.00;100577.05;109129;1254;75507;-54
2024/01/01 08:53:50;;;;;;;14.90;10.40;;;;;;;8.92;100.00;100577.27;109166;1254;66111;-54
2024/01/01 08:56:17;;;;;;;16.60;9.50;;;;;;;8.83;100.00;100570.95;109257;1253;72746;-54
2024/01/01 08:58:45;;;;;;;15.40;9.80;;;;;;;8.75;100.00;100573.85;109123;1254;59144;-54
2024/01/01 09:01:13;;;;;;;13.20;9.60;;;;;;;8.63;100.00;100569.91;109183;1254;59127;-54
2024/01/01 09:03:40;;;;;;;13.00;8.50;;;;;;;8.53;100.00;100568.32;109142;1254;73439;-54
2024/01/01 09:06:08;;;;;;;14.00;9.60;;;;;;;8.53;100.00;100569.59;109122;1254;66973;-54
2024/01/01 09:08:36;;;;;;;15.20;10.10;;;;;;;8.64;100.00;100565.02;109116;1254;75170;-54
2024/01/01 09:11:03;;;;;;;14.80;9.70;;;;;;;8.72;100.00;100561.52;109121;1254;60159;-54
2024/01/01 09:13:31;;;;;;;14.80;9.40;;;;;;;8.78;100.00;100563.25;109151;1254;59362;-54
2024/01/01 09:15:59;;;;;;;13.70;9.10;;;;;;;8.88;100.00;100563.95;109135;1254;74776;-54
2024/01/01 09:18:27;;;;;;;14.00;9.20;;;;;;;9.04;100.00;100565.48;109057;1254;65687;-54
2024/01/01 09:20:55;;;;;;;14.20;9.20;;;;;;;9.28;100.00;100566.06;109207;1254;72732;-54
2024/01/01 09:23:27;;;;;;;14.50;10.40;;;;;;;9.47;100.00;100564.60;109107;1254;59443;-54
2024/01/01 09:25:57;;;;;;;17.10;11.00;;;;;;;9.49;100.00;100567.06;109146;1254;60163;-54
2024/01/01 09:28:26;;;;;;;13.70;9.50;;;;;;;9.56;100.00;100560.21;109267;1254;74723;-54
2024/01/01 09:30:55;;;;;;;14.20;10.00;;;;;;;9.68;100.00;100557.86;109131;1254;67220;-54
2024/01/01 09:33:23;;;;;;;13.90;9.60;;;;;;;9.69;100.00;100552.42;109099;1254;73256;-55
2024/01/01 09:35:52;;;;;;;11.80;9.30;;;;;;;9.67;100.00;100552.23;109130;1254;60106;-54
2024/01/01 09:38:20;;;;;;;16.50;11.40;;;;;;;9.72;100.00;100547.48;109283;1254;58942;-54
2024/01/01 09:40:48;;;;;;;16.50;11.40;;;;;;;9.88;100.00;100540.84;109273;1254;74760;-55
2024/01/01 09:43:19;;;;;;;13.80;9.90;;;;;;;9.97;100.00;100535.86;109085;1254;66819;-55
2024/01/01 09:45:48;;;;;;;17.20;13.50;;;;;;;9.79;100.00;100532.91;108956;1254;72735;-54
2024/01/01 09:48:15;;;;;;;18.60;15.00;;;;;;;9.39;100.00;100524.59;109189;1254;60172;-54
2024/01/01 09:50:43;;;;;;;14.60;10.80;;;;;;;9.06;100.00;100522.48;109231;1254;59048;-54
2024/01/01 09:53:11;;;;;;;14.00;9.60;;;;;;;8.81;100.00;100521.60;109100;1254;74718;-55
2024/01/01 09:55:39;;;;;;;14.50;10.10;;;;;;;8.61;100.00;100517.65;109169;1254;66935;-55
2024/01/01 09:58:06;;;;;;;12.40;8.80;;;;;;;8.44;100.00;100510.62;109198;1254;71415;-54
2024/01/01 10:00:34;;;;;;;11.50;9.10;;;;;;;8.30;100.00;100503.92;109177;1254;58908;-54
2024/01/01 10:03:07;;;;;;;13.10;9.50;;;;;;;8.18;100.00;100489.77;109168;1254;59268;-54
2024/01/01 10:05:34;;;;;;;12.70;9.60;;;;;;;7.99;100.00;100485.92;109180;1254;74607;-55
2024/01/01 10:08:09;;;;;;;13.30;9.70;;;;;;;7.91;100.00;100488.99;109171;1254;66873;-54
2024/01/01 10:10:40;;;;;;;19.50;11.50;;;;;;;7.99;100.00;100490.49;109285;1254;72711;-55
2024/01/01 10:13:08;;;;;;;;;;;;;;;8.19;100.00;100487.63;109229;1254;59501;-54
2024/01/01 10:15:37;;;;;;;14.30;10.10;;;;;;;8.39;100.00;100486.55;109087;1254;59016;-54
2024/01/01 10:18:16;;;;;;;15.20;9.80;;;;;;;8.48;100.00;100485.90;109294;1254;73449;-54
2024/01/01 10:20:44;;;;;;;14.40;10.60;;;;;;;8.50;100.00;100487.42;109257;1254;66964;-54
2024/01/01 10:23:21;;;;;;;14.70;10.30;;;;;;;8.55;100.00;100488.10;109008;1254;71373;-56
2024/01/01 10:26:09;;;;;;;15.00;9.40;;;;;;;8.72;100.00;100487.30;109164;1254;59012;-55
2024/01/01 10:28:37;;;;;;;15.00;8.80;;;;;;;8.89;100.00;100481.71;109244;1254;59339;-54
2024/01/01 10:31:05;;;;;;;15.70;9.10;;;;;;;8.99;100.00;100481.10;109106;1254;75930;-54
2024/01/01 10:33:33;;;;;;;14.00;8.70;;;;;;;9.09;100.00;100473.69;109253;1254;65595;-55
2024/01/01 10:36:01;;;;;;;14.90;9.40;;;;;;;9.25;100.00;100463.19;109189;1254;72707;-54
2024/01/01 10:38:30;;;;;;;12.60;8.60;;;;;;;9.45;100.00;100458.58;109248;1254;59482;-54
2024/01/01 10:40:58;;;;;;;13.10;8.80;;;;;;;9.50;100.00;100451.56;109220;1254;59304;-54
2024/01/01 10:43:27;;;;;;;12.30;8.30;;;;;;;9.52;100.00;100445.95;109274;1254;74712;-55
2024/01/01 10:46:02;;;;;;;12.10;8.40;;;;;;;9.69;100.00;100443.41;109164;1254;66917;-55
2024/01/01 10:48:33;;;;;;;14.50;8.20;;;;;;;9.96;100.00;100440.89;109180;1254;72848;-54
2024/01/01 10:51:25;;;;;;;11.50;7.40;;;;;;;10.21;100.00;100437.96;109105;1255;59272;-54
2024/01/01 10:54:08;;;;;;;12.70;8.00;;;;;;;10.33;100.00;100439.06;109193;1254;59185;-55
2024/01/01 10:57:05;;;;;;;12.20;7.90;;;;;;;10.26;100.00;100436.36;109096;1254;74703;-54
2024/01/01 11:00:05;;;;;;;14.70;8.50;;;;;;;9.86;100.00;100432.88;109064;1254;67032;-54
2024/01/01 11:02:32;;;;;;;13.90;8.30;;;;;;;9.47;100.00;100430.95;109112;1254;71433;-54
2024/01/01 11:05:10;;;;;;;16.40;8.70;;;;;;;9.16;100.00;100431.05;109214;1254;59321;-54